Aeroporto :
LOGIN :

Iscrizione | Disclaimer

   EN    FR    IT 

 










Sommario :    VFR   VFR Marginale   IFR   IFR Intensivo   IFR Molto Intensivo
Visibilità : 
Base nubi : 
>= 8 km
>= 3000ft
5 / 8 km
1000 / 3000 ft
1500m / 5 km
500 / 1000 ft
800 / 1500m
200 / 500 ft
< 800m
< 200 ft
Simboli :   Temporali  Nebbia  Neve Forte  Precipitazioni Forti  Vento > 20 kt
SIGMETs :   Varie  Temporali  Ghiacco  Turbolenza  Onda orograficha  Ceneri Vulcaniche






- Altitudine del aeroporto : 33 ft
- Codice IATA : MHZ


EGUN - RAF Mildenhall

ULTIMO METAR :
  • 251756Z 28017G25KT 9999 SCT030 SCT050 BKN070 BKN180 18/08 A2987 RMK AO2A PK WND 28027/06 SLP118 T01840081 10193 20151 52016 $

METARs OBSOLETI :
  • 251730Z 29015G22KT 9999 SCT046 BKN070 BKN200 19/08 A2986 RMK AO2A SLP115 $
  • 251656Z 28014KT 9999 FEW028 BKN044 BKN070 BKN210 18/12 A2985 RMK AO2A SLP111 T01830123 $
  • 251626Z 27014KT 9999 BKN027 BKN035 17/12 A2984 RMK AO2A CIG 027V034 SLP108 $
  • 251556Z 26014G21KT 9999 SCT060 BKN075 18/12 A2984 RMK AO2A RAB07E17RAB30E39 SLP108 P0000 T01790123 $

TAF TAF EGUN
Valido dal 25 a 12 ore il 26 a 18 ore UTC


251200Z 2512/2618 25015G30KT 9999 BKN030 OVC050 510005 QNH2979INS
TEMPO 2512/2516 6000 -SHRA BKN020
BECMG 2518/2519 26010G15KT 9999 SCT010 BKN020 OVC040 QNH2989INS
BECMG 2607/2608 25015G20KT 9999 OVC030 QNH3008INS
BECMG 2611/2612 26015G30KT 6000 -SHRA BKN020 OVC030 610709 510005 QNH3005INS TX17/2514Z TN11/2601Z



MetMap, La meteo Aeronautica in un colpo d'occhio ! - Copyright ORBIFLY Dicembre 2007 - Disclaimer

ORBIFLY MET'MAP TEAM :

Programmazione e sviluppo : Alexandra Zaïnal
Concezione : Baudouin d'Aumeries
Supporto tecnico e logistico : Manuel Goepfert
Aiuto : Marc-Olivier Méhu
Aiuto per la traduzione : Arnaldo La Scala

Contatto : metmap@orbifly.com




FONTI E CREDITI :

   NOAA